Airfield :
LOGIN :

Register | Disclaimer

   EN    FR    IT 

 










Legend :    VFR   Marginal VFR   IFR   Intensive IFR   Very Intensive IFR
Visi :
Ceiling :
>= 8 km
>= 3000ft
5 to 8 km
1000 to 3000 ft
1500m to 5 km
500 to 1000 ft
800 to 1500m
200 to 500 ft
< 800m
< 200 ft
Symbols :   Thunderstorms  Fog  Heavy snow  Heavy precipitations  Wind > 20 kt
SIGMETs :     Misc.  Thunderstorms  Icing  Turbulence  Mountain Waves  Volcanic Ashes






- Airport Elevation : 299 ft
- IATA code : EDM


LFRI - La Roche Sur Yon - Les Ajoncs

CURRENT METAR :
  • 091930Z AUTO 03007KT 9000 NSC M00/M02 Q1007 NOSIG

EXPIRED METARs :
  • 090500Z AUTO 04010KT 9999 OVC008 M00/M01 Q1003
  • 091900Z AUTO 02008KT CAVOK 00/M02 Q1007 NOSIG
  • 091830Z AUTO 02008KT CAVOK 00/M01 Q1007 NOSIG
  • 091800Z AUTO 02009KT CAVOK 01/M01 Q1006 NOSIG
  • 091730Z AUTO 01009KT CAVOK 01/M01 Q1006 NOSIG
  • 091700Z AUTO 02007KT CAVOK 01/M01 Q1005 NOSIG

TAF TAF LFRI
Valid from the 09 at 12:00 until the 10 at 12:00 UTC


091100Z 0912/1012 03012KT 9999 SCT040



MET'MAP, your aeronautical weather chart ! - Copyright ORBIFLY December 2007 - Disclaimer

ORBIFLY MET'MAP TEAM :

Programming & Development : Alexandra Zaïnal
Original concept : Baudouin d'Aumeries
Technical & hardware support : Manuel Goepfert
Assistance : Marc-Olivier Méhu




SOURCES & CREDITS :

   NOAA